Time;durP1;ratioP1;P1;durP2;ratioP2;P2;SDS_P1;SDS_P2;PMS_P1;PMS_P2;Temp;Humidity;BMP_temperature;BMP_pressure;BME280_temperature;BME280_humidity;BME280_pressure;Samples;Min_cycle;Max_cycle;Signal;HPM_P1;HPM_P2
2023/10/17 00:02:19;;;;;;;17.75;10.23;;;4.70;99.90;;;4.64;100.00;100928.88;5033229;28;20045;-80
2023/10/17 00:04:45;;;;;;;19.00;10.00;;;4.90;99.90;;;4.69;100.00;100917.56;5032905;28;20034;-80
2023/10/17 00:07:11;;;;;;;26.13;10.90;;;4.90;99.90;;;4.68;100.00;100918.59;5047673;28;20440;-80
2023/10/17 00:09:36;;;;;;;22.95;10.55;;;4.90;99.90;;;4.65;100.00;100908.94;5030457;28;20500;-80
2023/10/17 00:17:20;;;;;;;35.75;11.88;;;4.90;99.90;;;4.68;100.00;100903.19;5045092;28;20396;-81
2023/10/17 00:19:49;;;;;;;23.60;10.85;;;4.90;99.90;;;4.71;100.00;100908.25;5050004;28;20037;-81
2023/10/17 00:22:18;;;;;;;17.83;10.57;;;4.90;99.90;;;4.67;100.00;100916.91;5052158;28;20052;-81
2023/10/17 00:24:47;;;;;;;20.15;10.32;;;4.80;99.90;;;4.59;100.00;100913.19;5039763;28;20051;-81
2023/10/17 00:27:14;;;;;;;22.83;10.95;;;4.80;99.90;;;4.51;100.00;100913.19;5032076;28;20086;-80
2023/10/17 00:29:40;;;;;;;50.72;12.90;;;4.70;99.90;;;4.49;100.00;100909.81;5032351;28;20112;-81
2023/10/17 00:32:09;;;;;;;18.67;10.50;;;4.60;99.90;;;4.41;100.00;100894.44;5032350;28;20512;-81
2023/10/17 00:34:36;;;;;;;14.90;9.45;;;4.60;99.90;;;4.27;100.00;100903.25;5031701;28;20065;-80
2023/10/17 00:37:11;;;;;;;16.45;9.13;;;4.40;99.90;;;4.16;100.00;100915.22;5037403;28;20481;-81
2023/10/17 00:39:38;;;;;;;13.70;8.45;;;4.30;99.90;;;3.97;100.00;100919.94;5038833;28;20065;-81
2023/10/17 00:44:44;;;;;;;13.13;7.95;;;4.00;99.90;;;3.68;100.00;100942.81;5035217;28;20033;-81
2023/10/17 00:47:11;;;;;;;11.80;6.93;;;3.90;99.90;;;3.65;100.00;100945.00;5036946;28;20104;-80
2023/10/17 00:49:41;;;;;;;8.90;5.93;;;3.80;99.90;;;3.52;100.00;100937.34;5030244;28;20036;-81
2023/10/17 00:52:29;;;;;;;20.48;7.57;;;3.80;99.90;;;3.62;100.00;100946.19;5032231;28;20033;-80
2023/10/17 00:54:59;;;;;;;15.50;9.90;;;3.80;99.90;;;3.75;100.00;100940.31;5031030;28;20042;-79
2023/10/17 00:57:28;;;;;;;14.68;9.57;;;3.90;99.90;;;3.81;100.00;100928.84;5032373;28;20037;-79
2023/10/17 01:00:23;;;;;;;16.70;9.25;;;4.10;99.90;;;3.82;100.00;100919.75;5047620;28;20044;-79
2023/10/17 01:02:51;;;;;;;15.20;8.75;;;4.10;99.90;;;3.74;100.00;100917.88;5037094;28;20052;-79
2023/10/17 01:05:18;;;;;;;13.68;8.57;;;4.00;99.90;;;3.70;100.00;100927.31;5036344;28;20037;-80
2023/10/17 01:07:44;;;;;;;15.48;9.25;;;3.80;99.90;;;3.59;100.00;100920.34;5036209;28;20596;-79
2023/10/17 01:10:13;;;;;;;18.50;10.70;;;3.80;99.90;;;3.47;100.00;100910.03;5032306;28;20389;-79
2023/10/17 01:12:53;;;;;;;87.28;14.80;;;3.70;99.90;;;3.65;100.00;100921.56;5034860;28;20045;-80
2023/10/17 01:15:29;;;;;;;32.65;10.52;;;3.80;99.90;;;3.63;100.00;100890.34;5044338;28;20041;-80
2023/10/17 01:18:03;;;;;;;19.15;9.57;;;3.90;99.90;;;3.66;100.00;100900.81;5053661;28;20029;-80
2023/10/17 01:20:34;;;;;;;15.85;8.93;;;3.90;99.90;;;3.50;100.00;100897.06;5034230;28;20114;-80
2023/10/17 01:23:03;;;;;;;13.18;8.35;;;3.80;99.90;;;3.43;100.00;100918.44;5039272;28;20072;-80
2023/10/17 01:25:29;;;;;;;12.40;7.80;;;3.60;99.90;;;3.32;100.00;100907.97;5035637;28;20159;-80
2023/10/17 01:27:57;;;;;;;13.35;7.72;;;3.50;99.90;;;3.19;100.00;100911.13;5051734;28;20048;-80
2023/10/17 01:30:29;;;;;;;11.70;7.53;;;3.40;99.90;;;3.07;100.00;100920.47;5033902;28;20045;-80
2023/10/17 01:32:56;;;;;;;12.52;7.85;;;3.30;99.90;;;2.93;100.00;100920.09;5035556;28;20504;-80
2023/10/17 01:35:24;;;;;;;15.70;7.57;;;3.20;99.90;;;2.90;100.00;100933.84;5036253;28;20041;-80
2023/10/17 01:37:52;;;;;;;14.63;7.68;;;3.00;99.90;;;2.81;100.00;100921.34;5034882;28;20155;-80
2023/10/17 01:40:27;;;;;;;;;;;3.00;99.90;;;2.90;100.00;100920.38;5038079;28;20033;-80
2023/10/17 01:42:59;;;;;;;23.13;9.50;;;3.10;99.90;;;3.04;100.00;100927.03;5033687;28;19924;-80
2023/10/17 01:45:26;;;;;;;17.67;9.63;;;3.20;99.90;;;2.99;100.00;100914.06;5048073;28;20099;-80
2023/10/17 01:47:53;;;;;;;16.92;8.60;;;3.20;99.90;;;2.91;100.00;100902.38;5038940;28;20060;-80
2023/10/17 01:50:20;;;;;;;17.73;8.82;;;3.20;99.90;;;2.90;100.00;100904.22;5041078;28;20037;-80
2023/10/17 01:52:47;;;;;;;17.38;8.63;;;3.20;99.90;;;2.96;100.00;100900.91;5034036;28;20492;-80
2023/10/17 01:55:16;;;;;;;11.40;6.10;;;3.30;99.90;;;2.93;100.00;100892.28;5042081;28;20036;-80
2023/10/17 01:57:47;;;;;;;10.70;6.28;;;3.30;99.90;;;2.94;100.00;100900.22;5053796;28;20037;-80
2023/10/17 02:00:27;;;;;;;8.05;4.90;;;3.20;99.90;;;2.87;100.00;100904.53;5034402;28;20122;-80
2023/10/17 02:02:55;;;;;;;10.93;5.22;;;3.20;99.90;;;2.75;100.00;100897.75;5049182;28;20041;-80
2023/10/17 02:05:22;;;;;;;12.13;5.17;;;3.10;99.90;;;2.65;100.00;100906.78;5035069;28;20124;-80
2023/10/17 02:07:48;;;;;;;14.27;4.68;;;3.00;99.90;;;2.66;100.00;100916.56;5050037;28;20297;-80
2023/10/17 02:10:17;;;;;;;11.50;4.90;;;3.00;99.90;;;2.63;100.00;100919.53;5034008;28;20393;-80
2023/10/17 02:12:47;;;;;;;9.10;5.82;;;2.90;99.90;;;2.63;100.00;100919.53;5033350;28;20065;-78
2023/10/17 02:15:16;;;;;;;10.55;6.47;;;3.00;99.90;;;2.56;100.00;100899.63;5036309;28;20095;-79
2023/10/17 02:17:42;;;;;;;13.98;7.03;;;2.90;99.90;;;2.62;100.00;100900.84;5050229;28;20128;-78
2023/10/17 02:20:17;;;;;;;12.27;6.88;;;2.90;99.90;;;2.64;100.00;100899.69;5037339;28;20154;-79
2023/10/17 02:22:46;;;;;;;14.27;7.38;;;2.90;99.90;;;2.62;100.00;100901.69;5034201;28;20037;-79
2023/10/17 02:25:15;;;;;;;21.27;9.30;;;2.90;99.90;;;2.62;100.00;100907.06;5033908;28;20201;-79
2023/10/17 02:27:43;;;;;;;19.15;9.77;;;2.90;99.90;;;2.58;100.00;100884.16;5035219;28;20501;-79
2023/10/17 02:30:14;;;;;;;23.80;9.88;;;2.90;99.90;;;2.68;100.00;100906.47;5038334;28;20399;-79
2023/10/17 02:32:52;;;;;;;18.73;9.23;;;2.90;99.90;;;2.65;100.00;100896.00;5059958;28;20044;-78
2023/10/17 02:35:21;;;;;;;18.92;9.82;;;2.90;99.90;;;2.65;100.00;100889.75;5035087;28;20038;-79
2023/10/17 02:37:48;;;;;;;16.33;9.07;;;2.90;99.90;;;2.52;100.00;100892.88;5034606;28;20154;-79
2023/10/17 02:40:20;;;;;;;21.15;10.50;;;2.80;99.90;;;2.46;100.00;100897.03;5033355;28;20460;-79
2023/10/17 02:42:47;;;;;;;16.63;9.25;;;2.80;99.90;;;2.39;100.00;100894.16;5042245;28;20068;-78
2023/10/17 02:45:24;;;;;;;14.93;9.18;;;2.70;99.90;;;2.39;100.00;100899.53;5054512;28;20041;-79
2023/10/17 02:48:06;;;;;;;16.88;9.02;;;2.70;99.90;;;2.43;100.00;100905.44;5032932;28;20049;-79
2023/10/17 02:52:59;;;;;;;17.55;9.30;;;2.70;99.90;;;2.42;100.00;100899.22;5052303;28;20041;-78
2023/10/17 02:55:30;;;;;;;17.85;10.52;;;2.70;99.90;;;2.46;100.00;100898.91;5038602;28;20119;-80
2023/10/17 02:57:56;;;;;;;16.00;9.82;;;2.80;99.90;;;2.39;100.00;100885.22;5052361;28;20045;-79
2023/10/17 03:00:25;;;;;;;14.90;9.88;;;2.80;99.90;;;2.40;100.00;100892.28;5036904;28;20029;-80
2023/10/17 03:02:52;;;;;;;14.25;9.40;;;2.70;99.90;;;2.47;100.00;100908.66;5034882;28;20529;-79
2023/10/17 03:05:18;;;;;;;18.17;10.30;;;2.70;99.90;;;2.47;100.00;100904.09;5038303;28;20044;-79
2023/10/17 03:07:49;;;;;;;16.15;10.43;;;2.80;99.90;;;2.50;100.00;100894.88;5035713;28;20071;-79
2023/10/17 03:10:39;;;;;;;16.73;10.32;;;2.80;99.90;;;2.54;100.00;100901.63;5054485;28;20043;-79
2023/10/17 03:13:23;;;;;;;24.65;11.98;;;2.80;99.90;;;2.49;100.00;100885.94;5054440;28;20040;-79
2023/10/17 03:15:55;;;;;;;17.20;10.75;;;2.80;99.90;;;2.48;100.00;100897.72;5053688;28;20040;-79
2023/10/17 03:18:22;;;;;;;19.65;11.25;;;2.80;99.90;;;2.52;100.00;100898.25;5037036;28;20481;-79
2023/10/17 03:20:51;;;;;;;19.88;11.30;;;2.80;99.90;;;2.53;100.00;100898.13;5037256;28;20128;-79
2023/10/17 03:23:28;;;;;;;17.35;11.90;;;2.80;99.90;;;2.52;100.00;100893.72;5034157;28;20481;-80
2023/10/17 03:26:00;;;;;;;23.23;11.95;;;2.80;99.90;;;2.53;100.00;100898.13;5033958;28;20038;-79
2023/10/17 03:28:28;;;;;;;23.65;11.57;;;2.80;99.90;;;2.55;100.00;100895.25;5046798;28;20041;-78
2023/10/17 03:30:54;;;;;;;16.08;11.10;;;2.80;99.90;;;2.48;100.00;100889.63;5036995;28;20650;-79
2023/10/17 03:33:26;;;;;;;18.58;11.10;;;2.70;99.90;;;2.49;100.00;100895.88;5034993;28;20396;-79
2023/10/17 03:38:31;;;;;;;57.75;13.90;;;2.80;99.90;;;2.60;100.00;100882.16;5032970;28;20096;-79
2023/10/17 03:41:15;;;;;;;67.78;13.70;;;2.90;99.90;;;2.65;100.00;100885.22;5033671;28;20048;-80
2023/10/17 03:43:51;;;;;;;34.70;13.15;;;2.90;99.90;;;2.70;100.00;100882.03;5040714;28;20060;-80
2023/10/17 03:46:18;;;;;;;117.63;16.35;;;3.00;99.90;;;2.78;100.00;100879.38;5036085;28;20550;-80
2023/10/17 03:48:49;;;;;;;18.35;11.38;;;3.10;99.90;;;2.80;100.00;100865.75;5033326;28;20504;-79
2023/10/17 03:51:23;;;;;;;19.95;12.20;;;3.10;99.90;;;2.91;100.00;100872.72;5033254;28;20040;-79
2023/10/17 03:53:49;;;;;;;26.70;12.88;;;3.20;99.90;;;2.89;100.00;100870.19;5033658;28;20034;-79
2023/10/17 03:56:23;;;;;;;25.38;12.63;;;3.20;99.90;;;3.00;100.00;100872.59;5041000;28;20048;-80
2023/10/17 03:59:18;;;;;;;19.58;11.93;;;3.30;99.90;;;2.99;100.00;100860.13;5033128;28;20124;-80
2023/10/17 04:01:49;;;;;;;33.45;13.45;;;3.30;99.90;;;3.06;100.00;100864.88;5034053;28;20049;-80
2023/10/17 04:04:30;;;;;;;24.08;12.73;;;3.40;99.90;;;3.14;100.00;100867.59;5035844;28;20048;-80
2023/10/17 04:06:57;;;;;;;31.90;13.77;;;3.40;99.90;;;3.20;100.00;100869.66;5032911;28;20049;-80
2023/10/17 04:09:27;;;;;;;151.43;18.17;;;3.50;99.90;;;3.16;100.00;100854.78;5031466;28;20519;-80
2023/10/17 04:11:58;;;;;;;32.15;13.63;;;3.60;99.90;;;3.30;100.00;100866.81;5038836;28;20025;-80
2023/10/17 04:14:34;;;;;;;23.40;13.52;;;3.60;99.90;;;3.30;100.00;100856.88;5032440;28;20412;-80
2023/10/17 04:17:04;;;;;;;21.08;12.55;;;3.60;99.90;;;3.36;100.00;100862.63;5039199;28;20424;-80
2023/10/17 04:19:32;;;;;;;28.38;13.77;;;3.60;99.90;;;3.36;100.00;100863.47;5043182;28;20041;-80
2023/10/17 04:24:28;;;;;;;197.98;17.77;;;3.70;99.90;;;3.34;100.00;100873.59;5033426;28;20042;-80
2023/10/17 04:27:05;;;;;;;168.52;17.95;;;3.70;99.90;;;3.27;100.00;100859.91;5040404;28;20119;-80
2023/10/17 04:29:32;;;;;;;146.63;17.10;;;3.70;99.90;;;3.25;100.00;100858.38;5033413;28;20029;-79
2023/10/17 04:32:01;;;;;;;97.13;16.35;;;3.70;99.90;;;3.27;100.00;100867.13;5048507;28;20036;-80
2023/10/17 04:34:28;;;;;;;55.92;13.88;;;3.70;99.90;;;3.26;100.00;100860.91;5033336;28;20051;-80
2023/10/17 04:36:56;;;;;;;148.88;17.27;;;3.70;99.90;;;3.26;100.00;100865.44;5035904;28;20377;-80
2023/10/17 04:44:23;;;;;;;79.57;12.55;;;3.60;99.90;;;3.31;100.00;100861.25;5053584;28;20415;-79
2023/10/17 04:47:38;;;;;;;24.77;10.10;;;3.60;99.90;;;3.29;100.00;100857.88;5031541;28;20408;-79
2023/10/17 04:49:36;;;;;;;54.58;12.27;;;3.60;99.90;;;3.29;100.00;100855.19;5029637;28;20049;-79
2023/10/17 04:52:17;;;;;;;40.53;11.02;;;3.60;99.90;;;3.31;100.00;100872.06;5048115;28;20033;-78
2023/10/17 04:54:44;;;;;;;38.63;10.73;;;3.60;99.90;;;3.28;100.00;100869.69;5039872;28;20552;-79
2023/10/17 04:57:16;;;;;;;76.50;12.93;;;3.60;99.90;;;3.27;100.00;100867.13;5037574;28;20041;-79
2023/10/17 06:18:38;;;;;;;47.72;10.77;;;3.60;99.90;;;3.28;100.00;100949.72;5049464;28;20834;-78
2023/10/17 06:34:21;;;;;;;45.42;11.07;;;3.70;99.90;;;3.37;100.00;100950.63;5037234;28;20083;-81
2023/10/17 06:36:59;;;;;;;161.70;15.00;;;3.80;99.90;;;3.28;100.00;100960.50;5051141;28;20036;-77
2023/10/17 06:39:36;;;;;;;240.10;17.33;;;3.70;99.90;;;3.34;100.00;100964.44;5039296;28;20349;-77
2023/10/17 06:42:15;;;;;;;82.28;13.38;;;3.70;99.90;;;3.35;100.00;100958.03;5036041;28;20035;-78
2023/10/17 06:44:54;;;;;;;83.05;14.40;;;3.80;99.90;;;3.44;100.00;100957.91;5051143;28;20037;-79
2023/10/17 06:47:30;;;;;;;61.83;13.45;;;3.80;99.90;;;3.47;100.00;100947.78;5050365;28;20033;-79
2023/10/17 06:52:39;;;;;;;165.93;16.90;;;3.90;99.90;;;3.44;100.00;100946.25;5049558;28;20045;-80
2023/10/17 06:55:20;;;;;;;141.48;16.95;;;3.90;99.90;;;3.48;100.00;100941.38;5034783;28;20042;-77
2023/10/17 06:57:50;;;;;;;22.95;12.13;;;4.00;99.90;;;3.65;100.00;100945.00;5034487;28;20470;-78
2023/10/17 07:00:24;;;;;;;133.30;14.95;;;4.00;99.90;;;3.79;100.00;100932.72;5049118;28;20033;-76
2023/10/17 07:02:56;;;;;;;29.50;13.13;;;4.10;99.90;;;3.81;100.00;100931.56;5038919;28;20135;-77
2023/10/17 07:05:23;;;;;;;53.65;13.68;;;4.20;99.90;;;3.74;100.00;100928.66;5049924;28;20041;-77
2023/10/17 07:07:52;;;;;;;68.85;15.57;;;4.20;99.90;;;3.71;100.00;100914.63;5049166;28;20430;-77
2023/10/17 07:13:49;;;;;;;233.45;19.52;;;4.30;99.90;;;4.09;100.00;100916.91;5048969;28;20423;-77
2023/10/17 07:16:25;;;;;;;46.72;14.13;;;4.40;99.90;;;4.15;100.00;100910.84;5035240;28;20061;-77
2023/10/17 07:18:55;;;;;;;148.20;18.50;;;4.50;99.90;;;4.38;100.00;100902.06;5033381;28;20048;-76
2023/10/17 07:21:24;;;;;;;72.55;17.42;;;4.60;99.90;;;4.53;100.00;100888.72;5034080;28;20121;-76
2023/10/17 07:23:54;;;;;;;151.93;17.02;;;4.80;99.90;;;4.44;100.00;100904.09;5045109;28;20350;-76
2023/10/17 07:26:38;;;;;;;99.90;14.73;;;5.00;99.90;;;4.43;100.00;100924.84;5039325;28;20064;-75
2023/10/17 07:29:05;;;;;;;171.40;17.25;;;5.00;99.90;;;4.63;100.00;100923.63;5036246;28;20068;-76
2023/10/17 07:31:33;;;;;;;34.70;13.05;;;5.00;99.90;;;4.82;100.00;100927.84;5035841;28;20049;-78
2023/10/17 07:36:39;;;;;;;39.30;12.25;;;5.30;99.90;;;5.05;100.00;100952.31;5049018;28;20060;-76
2023/10/17 07:39:07;;;;;;;27.17;13.13;;;5.40;99.90;;;5.08;100.00;100973.59;5033236;28;20432;-76
2023/10/17 07:41:36;;;;;;;;;;;5.40;99.90;;;5.15;100.00;100989.97;5041674;28;20120;-77
2023/10/17 07:44:21;;;;;;;178.05;18.05;;;5.40;99.90;;;5.00;100.00;101006.06;5051887;28;20014;-76
2023/10/17 07:46:50;;;;;;;88.10;15.98;;;5.40;99.90;;;5.10;100.00;101019.41;5032895;28;20044;-77
2023/10/17 07:49:26;;;;;;;56.40;14.70;;;5.40;99.90;;;5.16;100.00;101019.53;5033545;28;20037;-79
2023/10/17 07:51:54;;;;;;;84.70;16.88;;;5.40;99.90;;;5.29;100.00;101029.84;5044707;28;20133;-76
2023/10/17 07:54:28;;;;;;;88.37;14.97;;;5.50;99.90;;;5.24;100.00;101034.09;5039066;28;20098;-78
2023/10/17 07:56:55;;;;;;;37.67;13.65;;;5.60;99.90;;;5.21;100.00;101046.09;5034813;28;20290;-77
2023/10/17 07:59:30;;;;;;;46.78;13.43;;;5.60;99.90;;;5.26;100.00;101030.19;5040361;28;20045;-77
2023/10/17 08:01:59;;;;;;;79.20;14.73;;;5.60;99.90;;;5.10;100.00;101051.88;5032561;28;20374;-77
2023/10/17 08:04:30;;;;;;;56.33;14.65;;;5.60;99.90;;;5.19;100.00;101061.66;5033581;28;20167;-77
2023/10/17 08:06:56;;;;;;;84.97;14.23;;;5.50;99.90;;;5.24;100.00;101051.16;5033568;28;20120;-77
2023/10/17 08:11:53;;;;;;;105.95;15.68;;;5.50;99.90;;;5.16;100.00;101057.41;5048646;28;20377;-77
2023/10/17 08:14:32;;;;;;;47.63;14.15;;;5.50;99.90;;;5.39;100.00;101054.00;5048348;28;20037;-77
2023/10/17 08:16:58;;;;;;;75.30;14.45;;;5.60;99.90;;;5.10;100.00;101073.50;5031828;28;20037;-77
2023/10/17 08:19:29;;;;;;;23.20;12.45;;;5.60;99.90;;;5.28;100.00;101082.25;5033376;28;20036;-78
2023/10/17 08:22:17;;;;;;;48.25;13.05;;;5.60;99.90;;;5.61;100.00;101068.69;5032363;28;20038;-77
2023/10/17 08:24:45;;;;;;;82.05;15.02;;;5.80;99.90;;;5.79;100.00;101077.59;5032576;28;20120;-78
2023/10/17 08:27:13;;;;;;;96.75;11.18;;;5.90;99.90;;;5.75;100.00;101090.63;5039920;28;20034;-77
2023/10/17 08:29:48;;;;;;;142.73;13.30;;;6.00;99.90;;;5.79;100.00;101093.84;5033445;28;20036;-78
2023/10/17 08:34:55;;;;;;;30.20;10.55;;;6.10;99.90;;;5.83;100.00;101139.31;5048381;28;20064;-77
2023/10/17 08:37:30;;;;;;;24.70;10.02;;;6.10;99.90;;;5.92;100.00;101152.84;5032736;28;20044;-77
2023/10/17 08:39:57;;;;;;;65.32;11.02;;;6.10;99.90;;;5.92;100.00;101163.69;5037960;28;20029;-78
2023/10/17 08:45:02;;;;;;;121.45;11.45;;;6.10;99.90;;;5.94;100.00;101191.44;5047902;28;20116;-77
2023/10/17 08:47:32;;;;;;;44.60;9.77;;;6.20;99.90;;;6.12;100.00;101183.13;5031724;28;20057;-77
2023/10/17 08:50:04;;;;;;;128.82;12.48;;;6.30;99.90;;;6.14;100.00;101195.50;5048280;28;20116;-77
2023/10/17 08:52:37;;;;;;;51.10;9.38;;;6.30;99.90;;;6.25;100.00;101194.28;5032940;28;20123;-77
2023/10/17 08:55:04;;;;;;;110.53;11.48;;;6.40;99.90;;;6.27;100.00;101210.34;5031254;28;20040;-77
2023/10/17 08:57:37;;;;;;;57.25;10.23;;;6.50;99.90;;;6.45;100.00;101202.81;5032850;28;20075;-78
2023/10/17 09:02:48;;;;;;;49.20;8.57;;;6.70;99.90;;;6.74;100.00;101223.03;5036267;28;20048;-77
2023/10/17 09:05:18;;;;;;;102.90;10.05;;;6.90;99.90;;;6.78;100.00;101225.38;5045484;28;20409;-77
2023/10/17 09:07:48;;;;;;;16.17;7.65;;;7.00;99.90;;;6.73;100.00;101243.03;5038987;28;20103;-77
2023/10/17 09:10:28;;;;;;;42.95;8.32;;;7.00;99.90;;;6.48;100.00;101262.09;5032265;28;20072;-77
2023/10/17 09:15:50;;;;;;;27.02;8.60;;;6.80;99.90;;;6.87;100.00;101251.44;5032606;28;20088;-77
2023/10/17 09:18:31;;;;;;;59.92;9.18;;;7.10;99.90;;;7.00;100.00;101243.56;5048174;28;20041;-77
2023/10/17 09:21:04;;;;;;;44.13;8.27;;;7.30;99.90;;;6.80;100.00;101272.16;5047398;28;20053;-77
2023/10/17 09:23:30;;;;;;;64.25;10.18;;;7.20;99.90;;;7.04;100.00;101274.75;5047945;28;20042;-77
2023/10/17 09:26:01;;;;;;;44.08;9.90;;;7.20;99.90;;;7.28;100.00;101272.91;5032402;28;20052;-77
2023/10/17 09:28:28;;;;;;;31.02;9.95;;;7.40;99.90;;;7.46;100.00;101258.19;5031299;28;20052;-77
2023/10/17 09:31:02;;;;;;;21.10;9.15;;;7.60;99.90;;;7.46;100.00;101269.91;5030125;28;20041;-77
2023/10/17 09:33:33;;;;;;;38.55;9.60;;;7.60;99.90;;;7.44;100.00;101277.38;5017204;28;20036;-77
2023/10/17 09:36:06;;;;;;;52.75;9.27;;;7.70;99.90;;;7.03;100.00;101286.63;5035698;28;20033;-77
2023/10/17 09:38:33;;;;;;;12.45;8.82;;;7.60;99.90;;;7.07;100.00;101294.41;5034957;28;20781;-77
2023/10/17 09:41:01;;;;;;;22.88;10.23;;;7.40;99.90;;;7.16;100.00;101288.75;5036035;28;20373;-77
2023/10/17 09:43:29;;;;;;;17.52;10.77;;;7.40;99.90;;;7.49;100.00;101279.56;5035587;28;20029;-77
2023/10/17 09:46:02;;;;;;;18.05;11.20;;;7.70;99.90;;;7.54;100.00;101265.41;5035659;28;20052;-77
2023/10/17 09:48:36;;;;;;;24.92;11.75;;;7.80;99.90;;;7.51;100.00;101272.06;5044854;28;20123;-75
2023/10/17 09:51:04;;;;;;;20.75;11.38;;;7.80;99.90;;;7.52;100.00;101273.75;5035588;28;20072;-75
2023/10/17 09:53:37;;;;;;;16.27;10.60;;;7.80;99.90;;;7.58;100.00;101255.91;5035822;28;20543;-75
2023/10/17 09:56:16;;;;;;;27.98;11.57;;;7.90;99.90;;;7.56;100.00;101264.22;5035355;28;20087;-76
2023/10/17 09:58:49;;;;;;;23.88;10.77;;;8.00;99.90;;;7.65;100.00;101253.28;5034603;28;20585;-76
2023/10/17 10:01:23;;;;;;;19.95;10.90;;;7.90;99.90;;;7.37;100.00;101275.56;5035814;28;20052;-76
2023/10/17 10:03:56;;;;;;;26.50;11.93;;;7.80;99.90;;;7.42;100.00;101276.72;5056384;28;20033;-76
2023/10/17 10:06:32;;;;;;;22.35;12.15;;;7.80;99.90;;;7.45;100.00;101276.34;5035824;28;20033;-75
2023/10/17 10:09:13;;;;;;;29.88;13.80;;;7.80;99.90;;;7.25;100.00;101284.13;5033072;28;20056;-75
2023/10/17 10:11:48;;;;;;;33.97;13.82;;;7.70;99.90;;;7.24;100.00;101277.00;5039786;28;20113;-75
2023/10/17 10:14:36;;;;;;;24.33;14.10;;;7.70;99.90;;;7.27;100.00;101259.50;5050739;28;20041;-76
2023/10/17 10:17:03;;;;;;;28.60;17.52;;;7.70;99.90;;;6.92;100.00;101270.75;5033120;28;20120;-76
2023/10/17 10:19:41;;;;;;;35.35;19.20;;;7.50;99.90;;;6.88;100.00;101258.53;5038357;28;20485;-76
2023/10/17 10:22:16;;;;;;;35.60;18.98;;;7.40;99.90;;;7.03;100.00;101232.34;5051518;28;20481;-76
2023/10/17 10:24:45;;;;;;;34.85;20.27;;;7.50;99.90;;;7.03;100.00;101221.50;5033089;28;20056;-76
2023/10/17 10:27:14;;;;;;;38.05;21.27;;;7.50;99.90;;;7.20;100.00;101218.69;5045961;28;20059;-76
2023/10/17 10:29:40;;;;;;;47.92;25.00;;;7.60;99.90;;;7.32;100.00;101211.81;5052815;28;20037;-77
2023/10/17 10:32:37;;;;;;;47.55;24.77;;;7.70;99.90;;;7.54;100.00;101201.09;5053716;28;20489;-76
2023/10/17 10:35:08;;;;;;;48.13;25.10;;;7.80;99.90;;;7.44;100.00;101205.97;5033910;28;20089;-76
2023/10/17 10:37:54;;;;;;;49.88;25.40;;;7.90;99.90;;;7.62;100.00;101206.47;5034933;28;20127;-77
2023/10/17 10:40:30;;;;;;;49.63;26.15;;;7.90;99.90;;;7.72;100.00;101194.50;5033572;28;20089;-77
2023/10/17 10:43:04;;;;;;;55.20;27.48;;;8.00;99.90;;;7.85;100.00;101212.91;5034599;28;20025;-76
2023/10/17 10:45:42;;;;;;;49.42;26.38;;;8.10;99.90;;;7.94;100.00;101209.06;5048581;28;20043;-76
2023/10/17 10:48:18;;;;;;;52.53;26.20;;;8.20;99.90;;;7.96;100.00;101225.19;5034311;28;20112;-77
2023/10/17 10:50:52;;;;;;;53.70;26.65;;;8.30;99.90;;;8.19;100.00;101241.41;5034300;28;20041;-77
2023/10/17 10:53:27;;;;;;;49.60;26.20;;;8.40;99.90;;;8.30;100.00;101249.09;5033145;28;20025;-77
2023/10/17 10:56:02;;;;;;;43.00;24.70;;;8.60;99.90;;;8.53;100.00;101259.06;5046364;28;20033;-78
2023/10/17 10:58:31;;;;;;;41.78;23.60;;;8.70;99.90;;;8.70;100.00;101269.75;5048772;28;20115;-78
2023/10/17 11:01:02;;;;;;;39.30;23.10;;;8.80;99.90;;;8.85;100.00;101280.63;5038612;28;20059;-78
2023/10/17 11:03:30;;;;;;;40.10;22.35;;;9.00;99.90;;;8.71;100.00;101276.88;5049017;28;20437;-77
2023/10/17 11:05:58;;;;;;;;;;;9.00;99.90;;;8.85;100.00;101289.59;5034962;28;20076;-77
2023/10/17 11:08:35;;;;;;;37.42;20.65;;;9.10;99.90;;;8.90;100.00;101298.06;5033588;28;19921;-77
2023/10/17 11:11:00;;;;;;;36.45;20.65;;;9.10;99.90;;;9.16;100.00;101301.28;5033779;28;20106;-77
2023/10/17 11:13:36;;;;;;;35.58;21.38;;;9.30;99.90;;;9.39;100.00;101311.19;5032228;28;20037;-76
2023/10/17 11:16:06;;;;;;;35.35;20.63;;;9.50;99.90;;;9.56;100.00;101325.41;5034455;28;20037;-76
2023/10/17 11:18:43;;;;;;;38.22;23.23;;;9.70;99.90;;;9.50;100.00;101324.28;5032802;28;20043;-78
2023/10/17 11:21:10;;;;;;;40.80;22.92;;;9.70;99.90;;;9.36;100.00;101328.75;5031250;28;20046;-78
2023/10/17 11:23:50;;;;;;;37.85;22.30;;;9.60;99.90;;;9.43;100.00;101332.41;5033809;28;20091;-76
2023/10/17 11:26:21;;;;;;;40.42;22.95;;;9.60;99.90;;;9.55;100.00;101331.88;5033358;28;20059;-76
2023/10/17 11:28:51;;;;;;;35.30;21.33;;;9.70;99.90;;;9.52;100.00;101333.09;5033302;28;20053;-76
2023/10/17 11:31:22;;;;;;;37.25;20.27;;;9.60;99.90;;;9.63;100.00;101327.16;5032499;28;20377;-76
2023/10/17 11:33:56;;;;;;;33.83;19.08;;;9.70;99.90;;;9.75;100.00;101329.34;5033532;28;20103;-76
2023/10/17 11:36:23;;;;;;;31.23;18.42;;;9.80;99.90;;;9.54;100.00;101330.19;5032828;28;20441;-76
2023/10/17 11:38:58;;;;;;;32.35;18.02;;;9.80;99.90;;;9.54;100.00;101324.75;5031998;28;20127;-78
2023/10/17 11:41:31;;;;;;;30.05;17.50;;;9.80;99.90;;;9.64;100.00;101323.41;5033512;28;20477;-77
2023/10/17 11:44:04;;;;;;;30.52;17.67;;;9.80;99.90;;;9.71;100.00;101334.38;5032154;28;20119;-76
2023/10/17 11:46:34;;;;;;;30.80;17.58;;;9.90;99.90;;;9.68;100.00;101337.50;5033645;28;20041;-76
2023/10/17 11:49:33;;;;;;;32.22;18.33;;;9.90;99.90;;;9.76;100.00;101339.22;5033040;28;20396;-76
2023/10/17 11:52:05;;;;;;;30.20;17.77;;;10.00;99.90;;;9.69;100.00;101341.03;5033615;28;20033;-77
2023/10/17 11:54:32;;;;;;;32.63;17.85;;;10.00;99.90;;;9.76;100.00;101336.50;5033262;28;20075;-77
2023/10/17 11:57:14;;;;;;;31.83;17.83;;;10.00;99.90;;;9.35;100.00;101337.94;5033292;28;20051;-78
2023/10/17 11:59:56;;;;;;;30.40;16.10;;;9.80;99.90;;;9.41;100.00;101331.72;5031907;28;20911;-78
2023/10/17 12:02:23;;;;;;;28.83;16.33;;;9.80;99.90;;;9.47;100.00;101330.97;5033291;28;20044;-77
2023/10/17 12:04:49;;;;;;;27.25;15.15;;;9.80;99.90;;;9.54;100.00;101330.19;5040526;28;20205;-77
2023/10/17 12:07:15;;;;;;;26.10;16.20;;;9.80;99.90;;;9.63;100.00;101326.31;5048196;28;20116;-77
2023/10/17 12:09:41;;;;;;;27.45;15.32;;;9.80;99.90;;;9.92;100.00;101327.22;5032999;28;20041;-76
2023/10/17 12:12:06;;;;;;;24.17;13.57;;;10.10;99.90;;;10.27;100.00;101326.44;5031073;28;20030;-76
2023/10/17 12:14:35;;;;;;;19.20;12.23;;;10.40;99.90;;;10.50;100.00;101328.97;5032922;28;20069;-76
2023/10/17 12:17:03;;;;;;;20.35;11.50;;;10.60;99.90;;;10.67;100.00;101318.56;5048216;28;20179;-77
2023/10/17 12:19:29;;;;;;;19.13;11.10;;;10.70;99.90;;;10.70;100.00;101326.34;5030927;28;20076;-76
2023/10/17 12:22:00;;;;;;;16.40;9.93;;;10.90;99.90;;;10.66;100.00;101327.81;5037690;28;20071;-77
2023/10/17 12:24:34;;;;;;;16.90;10.48;;;10.90;99.90;;;10.61;100.00;101320.22;5037418;28;20527;-76
2023/10/17 12:27:01;;;;;;;14.38;10.05;;;10.90;99.90;;;10.61;100.00;101324.84;5032929;28;20058;-77
2023/10/17 12:29:29;;;;;;;14.45;9.35;;;10.80;99.90;;;10.68;100.00;101327.59;5032928;28;20088;-76
2023/10/17 12:32:05;;;;;;;14.37;9.33;;;10.80;99.90;;;10.67;100.00;101324.03;5030709;28;20037;-76
2023/10/17 12:35:05;;;;;;;15.88;10.77;;;10.90;99.90;;;10.46;100.00;101309.41;5038125;28;20048;-79
2023/10/17 12:37:43;;;;;;;15.27;10.45;;;10.70;99.90;;;10.45;100.00;101315.91;5030250;28;20049;-78
2023/10/17 12:40:18;;;;;;;17.40;10.88;;;10.60;99.90;;;10.40;100.00;101323.88;5032313;28;20390;-77
2023/10/17 12:42:46;;;;;;;15.70;10.52;;;10.50;99.90;;;10.15;100.00;101310.63;5038660;28;20838;-77